Time;durP1;ratioP1;P1;durP2;ratioP2;P2;SDS_P1;SDS_P2;PMS_P1;PMS_P2;Temp;Humidity;BMP_temperature;BMP_pressure;BME280_temperature;BME280_humidity;BME280_pressure;Samples;Min_cycle;Max_cycle;Signal;HPM_P1;HPM_P2
2021/05/12 00:00:32;;;;;;;9.63;8.05;;;9.90;99.90;;;;;;6183243;23;20301;-88
2021/05/12 00:02:59;;;;;;;9.98;9.00;;;9.90;99.90;;;;;;6181465;23;20075;-87
2021/05/12 00:05:26;;;;;;;11.07;9.13;;;9.90;99.90;;;;;;6182706;23;20065;-87
2021/05/12 00:07:56;;;;;;;10.32;9.07;;;9.90;99.90;;;;;;6182700;23;20375;-88
2021/05/12 00:10:23;;;;;;;11.90;10.63;;;10.00;99.90;;;;;;6182647;23;20055;-88
2021/05/12 00:12:54;;;;;;;13.10;10.85;;;10.00;99.90;;;;;;6182491;23;20025;-86
2021/05/12 00:15:23;;;;;;;13.23;11.27;;;10.00;99.90;;;;;;6182577;23;20104;-88
2021/05/12 00:17:51;;;;;;;14.93;10.93;;;10.00;99.90;;;;;;6182780;23;20105;-87
2021/05/12 00:20:23;;;;;;;11.75;10.32;;;10.00;99.90;;;;;;6181543;23;20103;-87
2021/05/12 00:25:20;;;;;;;14.50;9.93;;;9.90;99.90;;;;;;6185474;23;20055;-87
2021/05/12 00:27:47;;;;;;;12.75;10.30;;;10.00;99.90;;;;;;6182565;23;20024;-87
2021/05/12 00:30:17;;;;;;;9.93;8.85;;;10.00;99.90;;;;;;6182879;23;20328;-88
2021/05/12 00:32:45;;;;;;;13.82;9.55;;;10.00;99.90;;;;;;6182614;23;20067;-86
2021/05/12 00:35:13;;;;;;;12.45;8.32;;;10.00;99.90;;;;;;6184125;23;20052;-88
2021/05/12 00:37:41;;;;;;;8.20;6.78;;;10.00;99.90;;;;;;6184942;23;20061;-87
2021/05/12 00:40:12;;;;;;;6.40;5.65;;;10.00;99.90;;;;;;6184220;23;20416;-86
2021/05/12 00:42:40;;;;;;;7.68;5.22;;;10.00;99.90;;;;;;6185244;23;20017;-88
2021/05/12 00:45:12;;;;;;;5.50;5.00;;;10.00;99.90;;;;;;6184564;23;20032;-88
2021/05/12 00:47:40;;;;;;;6.22;5.28;;;10.00;99.90;;;;;;6184416;23;20055;-88
2021/05/12 00:50:10;;;;;;;7.25;5.43;;;10.00;99.90;;;;;;6209297;23;20079;-87
2021/05/12 00:52:37;;;;;;;7.00;5.40;;;10.00;99.90;;;;;;6184775;23;20049;-88
2021/05/12 00:55:05;;;;;;;9.10;5.50;;;10.00;99.90;;;;;;6184504;23;20105;-87
2021/05/12 00:57:33;;;;;;;8.55;5.78;;;10.00;99.90;;;;;;6158390;23;20024;-88
2021/05/12 01:00:01;;;;;;;8.23;5.47;;;10.00;99.90;;;;;;6184426;23;20128;-88
2021/05/12 01:02:28;;;;;;;10.25;5.32;;;10.00;99.90;;;;;;6184656;23;20447;-88
2021/05/12 01:04:54;;;;;;;5.88;5.28;;;10.00;99.90;;;;;;6183648;23;20048;-89
2021/05/12 01:07:22;;;;;;;8.32;5.00;;;9.90;99.90;;;;;;6184723;23;20021;-90
2021/05/12 01:09:50;;;;;;;6.78;4.88;;;10.00;99.90;;;;;;6183437;23;20112;-88
2021/05/12 01:12:19;;;;;;;5.22;4.72;;;9.90;99.90;;;;;;6184480;23;20471;-89
2021/05/12 01:14:46;;;;;;;5.82;4.80;;;9.90;99.90;;;;;;6184129;23;20592;-87
2021/05/12 01:17:15;;;;;;;5.97;5.03;;;9.90;99.90;;;;;;6183258;23;20016;-88
2021/05/12 01:19:44;;;;;;;7.70;4.82;;;9.90;99.90;;;;;;6184862;23;20021;-90
2021/05/12 01:22:11;;;;;;;5.18;4.68;;;9.80;99.90;;;;;;6184363;23;20052;-88
2021/05/12 01:24:38;;;;;;;5.22;4.00;;;9.80;99.90;;;;;;6184631;23;20021;-88
2021/05/12 01:27:08;;;;;;;4.57;3.70;;;9.80;99.90;;;;;;6184522;23;20156;-88
2021/05/12 01:29:37;;;;;;;5.80;3.80;;;9.80;99.90;;;;;;6184240;23;20099;-89
2021/05/12 01:32:06;;;;;;;2.92;2.63;;;9.80;99.90;;;;;;6185089;23;20376;-88
2021/05/12 01:34:33;;;;;;;5.70;2.50;;;9.70;99.90;;;;;;6184417;23;20025;-89
2021/05/12 01:37:00;;;;;;;3.05;2.08;;;9.70;99.90;;;;;;6183188;23;20017;-88
2021/05/12 01:39:27;;;;;;;4.72;2.63;;;9.60;99.90;;;;;;6183789;23;20017;-88
2021/05/12 01:41:54;;;;;;;3.15;2.47;;;9.60;99.90;;;;;;6184215;23;20067;-89
2021/05/12 01:44:23;;;;;;;2.22;2.03;;;9.50;99.90;;;;;;6183675;23;20021;-89
2021/05/12 01:46:53;;;;;;;3.97;2.38;;;9.50;99.90;;;;;;6182145;23;20099;-90
2021/05/12 01:49:22;;;;;;;4.30;2.42;;;9.40;99.90;;;;;;6184015;23;20036;-88
2021/05/12 01:51:49;;;;;;;4.15;2.10;;;9.40;99.90;;;;;;6184623;23;20063;-90
2021/05/12 01:54:16;;;;;;;5.85;2.85;;;9.40;99.90;;;;;;6159409;23;20056;-89
2021/05/12 01:56:43;;;;;;;3.55;2.20;;;9.40;99.90;;;;;;6184458;23;20048;-89
2021/05/12 01:59:10;;;;;;;9.43;2.40;;;9.30;99.90;;;;;;6184585;23;20095;-89
2021/05/12 02:01:41;;;;;;;3.95;2.47;;;9.40;99.90;;;;;;6184263;23;20033;-89
2021/05/12 02:04:08;;;;;;;3.53;2.40;;;9.30;99.90;;;;;;6184386;23;20388;-87
2021/05/12 02:06:36;;;;;;;4.65;2.72;;;9.30;99.90;;;;;;6184331;23;20458;-89
2021/05/12 02:09:06;;;;;;;4.57;2.70;;;9.30;99.90;;;;;;6182670;23;20270;-89
2021/05/12 02:11:35;;;;;;;4.28;3.05;;;9.30;99.90;;;;;;6184456;23;20108;-89
2021/05/12 02:14:04;;;;;;;4.25;2.90;;;9.30;99.90;;;;;;6185122;23;20412;-87
2021/05/12 02:16:31;;;;;;;5.55;3.17;;;9.30;99.90;;;;;;6188554;23;20020;-87
2021/05/12 02:18:59;;;;;;;6.68;2.85;;;9.30;99.90;;;;;;6188292;23;20032;-89
2021/05/12 02:21:25;;;;;;;3.72;2.78;;;9.30;99.90;;;;;;6182803;23;20064;-87
2021/05/12 02:23:52;;;;;;;4.65;2.90;;;9.30;99.90;;;;;;6183130;23;20065;-89
2021/05/12 02:26:19;;;;;;;3.60;3.30;;;9.20;99.90;;;;;;6182026;23;20036;-89
2021/05/12 02:28:46;;;;;;;5.28;3.38;;;9.20;99.90;;;;;;6181993;23;20103;-88
2021/05/12 02:31:13;;;;;;;4.78;3.92;;;9.20;99.90;;;;;;6181701;23;20036;-89
2021/05/12 02:33:42;;;;;;;4.93;3.50;;;9.20;99.90;;;;;;6183153;23;20076;-89
2021/05/12 02:36:11;;;;;;;6.00;4.70;;;9.20;99.90;;;;;;6181651;23;20036;-88
2021/05/12 02:38:38;;;;;;;5.22;4.43;;;9.20;99.90;;;;;;6183789;23;20107;-88
2021/05/12 02:41:07;;;;;;;8.30;4.93;;;9.20;99.90;;;;;;6183666;23;20096;-90
2021/05/12 02:43:33;;;;;;;7.80;4.80;;;9.20;99.90;;;;;;6183796;23;20377;-89
2021/05/12 02:46:00;;;;;;;11.75;5.43;;;9.20;99.90;;;;;;6184084;23;20100;-90
2021/05/12 02:48:27;;;;;;;13.95;6.10;;;9.20;99.90;;;;;;6181968;23;20021;-87
2021/05/12 02:50:54;;;;;;;9.75;5.65;;;9.20;99.90;;;;;;6181496;23;20029;-89
2021/05/12 02:53:23;;;;;;;7.68;5.45;;;9.20;99.90;;;;;;6183715;23;20029;-89
2021/05/12 02:55:50;;;;;;;7.38;6.38;;;9.20;99.90;;;;;;6181787;23;20100;-90
2021/05/12 02:58:17;;;;;;;12.82;6.63;;;9.20;99.90;;;;;;6183031;23;20130;-88
2021/05/12 03:00:47;;;;;;;8.70;6.93;;;9.20;99.90;;;;;;6183146;23;20049;-87
2021/05/12 03:03:13;;;;;;;11.13;6.93;;;9.10;99.90;;;;;;6184435;23;20092;-90
2021/05/12 03:05:40;;;;;;;13.95;7.32;;;9.10;99.90;;;;;;6184834;23;20052;-89
2021/05/12 03:08:08;;;;;;;12.32;7.47;;;9.10;99.90;;;;;;6182279;23;20052;-90
2021/05/12 03:10:36;;;;;;;15.63;8.80;;;9.10;99.90;;;;;;6185242;23;20082;-89
2021/05/12 03:13:06;;;;;;;15.60;7.68;;;9.10;99.90;;;;;;6183544;23;20451;-89
2021/05/12 03:15:37;;;;;;;14.20;8.05;;;9.10;99.90;;;;;;6183509;23;20029;-89
2021/05/12 03:18:06;;;;;;;16.27;8.48;;;9.10;99.90;;;;;;6183805;23;20025;-90
2021/05/12 03:20:34;;;;;;;14.48;7.50;;;9.10;99.90;;;;;;6183387;23;20044;-89
2021/05/12 03:23:04;;;;;;;13.25;8.30;;;9.10;99.90;;;;;;6182761;23;20083;-89
2021/05/12 03:25:31;;;;;;;19.00;10.15;;;9.10;99.90;;;;;;6183337;23;20280;-90
2021/05/12 03:27:58;;;;;;;14.60;10.27;;;9.10;99.90;;;;;;6206611;23;20028;-89
2021/05/12 03:30:29;;;;;;;14.93;9.93;;;9.10;99.90;;;;;;6182055;23;20024;-89
2021/05/12 03:32:58;;;;;;;15.52;9.57;;;9.10;99.90;;;;;;6183373;23;20052;-90
2021/05/12 03:35:26;;;;;;;15.50;10.43;;;9.10;99.90;;;;;;6182963;23;20074;-90
2021/05/12 03:37:54;;;;;;;21.73;9.95;;;9.10;99.90;;;;;;6182825;23;20405;-86
2021/05/12 03:40:20;;;;;;;16.67;10.73;;;9.10;99.90;;;;;;6182129;23;20040;-86
2021/05/12 03:42:47;;;;;;;18.30;10.75;;;9.10;99.90;;;;;;6182310;23;20025;-88
2021/05/12 03:45:17;;;;;;;18.67;10.07;;;9.10;99.90;;;;;;6157102;23;20313;-90
2021/05/12 03:47:49;;;;;;;18.35;11.02;;;9.10;99.90;;;;;;6185465;23;20048;-90
2021/05/12 03:50:17;;;;;;;18.65;10.35;;;9.10;99.90;;;;;;6188572;23;20041;-90
2021/05/12 03:52:44;;;;;;;19.20;10.90;;;9.10;99.90;;;;;;6188765;23;20052;-89
2021/05/12 03:55:14;;;;;;;17.90;11.10;;;9.10;99.90;;;;;;6188145;23;20104;-89
2021/05/12 03:57:41;;;;;;;18.25;11.50;;;9.10;99.90;;;;;;6183339;23;20433;-89
2021/05/12 04:00:12;;;;;;;20.75;10.88;;;9.10;99.90;;;;;;6182322;23;20096;-90
2021/05/12 04:02:43;;;;;;;20.27;11.65;;;9.10;99.90;;;;;;6181850;23;20020;-90
2021/05/12 04:05:11;;;;;;;21.50;11.98;;;9.10;99.90;;;;;;6182112;23;20016;-90
2021/05/12 04:07:43;;;;;;;26.05;12.07;;;9.10;99.90;;;;;;6182579;23;20329;-90
2021/05/12 04:10:13;;;;;;;21.65;12.63;;;9.10;99.90;;;;;;6184503;23;20079;-90
2021/05/12 04:12:48;;;;;;;22.33;13.10;;;9.10;99.90;;;;;;6186929;23;20044;-92
2021/05/12 04:15:15;;;;;;;17.52;13.25;;;9.10;99.90;;;;;;6188298;23;20333;-91
2021/05/12 04:17:42;;;;;;;24.60;13.27;;;9.20;99.90;;;;;;6188876;23;20365;-89
2021/05/12 04:20:17;;;;;;;19.73;12.48;;;9.20;99.90;;;;;;6184605;23;20021;-91
2021/05/12 04:22:44;;;;;;;20.45;12.77;;;9.20;99.90;;;;;;6185021;23;20172;-90
2021/05/12 04:25:19;;;;;;;22.83;13.55;;;9.10;99.90;;;;;;6185934;23;20112;-92
2021/05/12 04:27:48;;;;;;;23.35;13.00;;;9.10;99.90;;;;;;6190531;23;20089;-90
2021/05/12 04:30:17;;;;;;;22.15;12.90;;;9.20;99.90;;;;;;6188966;23;20435;-90
2021/05/12 04:32:45;;;;;;;17.38;12.30;;;9.10;99.90;;;;;;6187313;23;20104;-90
2021/05/12 04:35:17;;;;;;;17.40;11.40;;;9.20;99.90;;;;;;6186350;23;20041;-91
2021/05/12 04:37:44;;;;;;;18.63;11.20;;;9.20;99.90;;;;;;6184818;23;20365;-90
2021/05/12 04:40:13;;;;;;;20.92;11.50;;;9.20;99.90;;;;;;6184652;23;20060;-91
2021/05/12 04:42:40;;;;;;;19.25;11.48;;;9.20;99.90;;;;;;6186410;23;20059;-91
2021/05/12 04:45:10;;;;;;;21.67;11.52;;;9.20;99.90;;;;;;6186297;23;20036;-92
2021/05/12 04:47:42;;;;;;;14.00;10.05;;;9.20;99.90;;;;;;6186741;23;20483;-90
2021/05/12 04:50:11;;;;;;;21.77;9.98;;;9.20;99.90;;;;;;6185385;23;20104;-91
2021/05/12 04:52:38;;;;;;;16.58;10.20;;;9.30;99.90;;;;;;6183228;23;20112;-91
2021/05/12 04:55:06;;;;;;;16.20;10.40;;;9.20;99.90;;;;;;6187012;23;20025;-89
2021/05/12 04:57:33;;;;;;;18.23;10.20;;;9.30;99.90;;;;;;6184706;23;20029;-91
2021/05/12 05:00:00;;;;;;;15.23;9.00;;;9.30;99.90;;;;;;6182857;23;20024;-90
2021/05/12 05:02:27;;;;;;;13.10;8.48;;;9.30;99.90;;;;;;6184531;23;20393;-90
2021/05/12 05:04:54;;;;;;;12.57;8.98;;;9.30;99.90;;;;;;6185425;23;20143;-91
2021/05/12 05:07:22;;;;;;;14.00;8.70;;;9.30;99.90;;;;;;6183875;23;20021;-91
2021/05/12 05:09:49;;;;;;;11.18;7.43;;;9.30;99.90;;;;;;6184155;23;20405;-91
2021/05/12 05:12:15;;;;;;;14.70;7.43;;;9.20;99.90;;;;;;6184707;23;20049;-90
2021/05/12 05:14:42;;;;;;;13.20;8.73;;;9.30;99.90;;;;;;6185462;23;20025;-91
2021/05/12 05:17:15;;;;;;;15.18;7.78;;;9.30;99.90;;;;;;6183834;23;20120;-91
2021/05/12 05:19:41;;;;;;;14.95;7.13;;;9.30;99.90;;;;;;6184809;23;20342;-91
2021/05/12 05:22:11;;;;;;;14.25;6.93;;;9.30;99.90;;;;;;6183655;23;20317;-89
2021/05/12 05:24:39;;;;;;;9.52;6.32;;;9.30;99.90;;;;;;6184829;23;20032;-90
2021/05/12 05:27:05;;;;;;;9.73;6.13;;;9.30;99.90;;;;;;6184003;23;20342;-93
2021/05/12 05:29:34;;;;;;;11.05;5.97;;;9.30;99.90;;;;;;6183430;23;20021;-90
2021/05/12 05:32:02;;;;;;;15.30;6.45;;;9.30;99.90;;;;;;6183530;23;20036;-90
2021/05/12 05:34:29;;;;;;;11.88;6.95;;;9.30;99.90;;;;;;6185611;23;20079;-91
2021/05/12 05:36:56;;;;;;;7.75;5.97;;;9.30;99.90;;;;;;6185682;23;20211;-90
2021/05/12 05:39:23;;;;;;;8.98;5.38;;;9.30;99.90;;;;;;6184176;23;20025;-90
2021/05/12 05:41:55;;;;;;;11.32;5.53;;;9.30;99.90;;;;;;6185173;23;20049;-91
2021/05/12 05:44:25;;;;;;;8.98;5.30;;;9.30;99.90;;;;;;6184250;23;20120;-91
2021/05/12 05:46:55;;;;;;;9.30;5.35;;;9.30;99.90;;;;;;6184509;23;20021;-91
2021/05/12 05:49:23;;;;;;;6.60;5.07;;;9.30;99.90;;;;;;6185546;23;20132;-90
2021/05/12 05:51:50;;;;;;;12.98;5.60;;;9.30;99.90;;;;;;6183845;23;20107;-92
2021/05/12 05:54:21;;;;;;;5.55;4.65;;;9.20;99.90;;;;;;6185212;23;20024;-90
2021/05/12 05:56:48;;;;;;;11.50;5.43;;;9.20;99.90;;;;;;6184467;23;20063;-91
2021/05/12 05:59:16;;;;;;;7.65;4.68;;;9.20;99.90;;;;;;6185793;23;20059;-92
2021/05/12 06:01:43;;;;;;;8.48;5.30;;;9.20;99.90;;;;;;6184017;23;20427;-90
2021/05/12 06:04:11;;;;;;;9.27;4.93;;;9.20;99.90;;;;;;6187595;23;20048;-88
2021/05/12 06:06:38;;;;;;;13.50;4.82;;;9.20;99.90;;;;;;6184521;23;20021;-91
2021/05/12 06:09:10;;;;;;;8.60;5.22;;;9.10;99.90;;;;;;6188992;23;20025;-91
2021/05/12 06:11:40;;;;;;;12.32;6.72;;;9.10;99.90;;;;;;6185514;23;20048;-89
2021/05/12 06:14:07;;;;;;;18.85;9.45;;;9.10;99.90;;;;;;6183213;23;20100;-88
2021/05/12 06:16:34;;;;;;;14.65;7.43;;;9.10;99.90;;;;;;6183324;23;20092;-89
2021/05/12 06:19:02;;;;;;;9.20;6.35;;;9.10;99.90;;;;;;6182345;23;20052;-87
2021/05/12 06:21:33;;;;;;;10.23;5.55;;;9.20;99.90;;;;;;6182939;23;20053;-89
2021/05/12 06:24:11;;;;;;;8.65;5.30;;;9.20;99.90;;;;;;6183404;23;20017;-93
2021/05/12 06:30:25;;;;;;;;;;;;;;;;;;;;;
2021/05/12 06:33:09;;;;;;;11.23;5.78;;;9.30;99.90;;;;;;6182053;23;20372;-94
2021/05/12 06:36:01;;;;;;;10.25;6.00;;;9.30;99.90;;;;;;6184498;23;20022;-92
2021/05/12 06:38:51;;;;;;;11.38;5.05;;;9.30;99.90;;;;;;6168107;23;20094;-91
2021/05/12 06:41:31;;;;;;;9.15;4.95;;;9.30;99.90;;;;;;6207720;23;20095;-92
2021/05/12 06:43:58;;;;;;;6.53;4.63;;;9.30;99.90;;;;;;6192777;23;20021;-91
2021/05/12 06:46:33;;;;;;;9.15;5.45;;;9.20;99.90;;;;;;6194313;23;20314;-91
2021/05/12 06:49:02;;;;;;;11.48;6.07;;;9.20;99.90;;;;;;6187056;23;20101;-91
2021/05/12 06:51:34;;;;;;;5.90;4.63;;;9.20;99.90;;;;;;6186147;23;20020;-92
2021/05/12 06:54:23;;;;;;;10.20;4.78;;;9.20;99.90;;;;;;6182734;23;20025;-90
2021/05/12 06:56:50;;;;;;;6.95;4.70;;;9.20;99.90;;;;;;6183840;23;20025;-90
2021/05/12 06:59:22;;;;;;;12.02;4.45;;;9.30;99.90;;;;;;6183386;23;20123;-92
2021/05/12 07:01:58;;;;;;;;;;;;;;;;;;;;;
2021/05/12 07:05:14;;;;;;;11.82;5.60;;;9.30;99.90;;;;;;6186715;23;20089;-92
2021/05/12 07:07:42;;;;;;;8.90;4.85;;;9.30;99.90;;;;;;6176514;23;20052;-89
2021/05/12 07:10:10;;;;;;;8.38;5.03;;;9.30;99.90;;;;;;6182881;23;20048;-91
2021/05/12 07:12:37;;;;;;;9.05;5.30;;;9.30;99.90;;;;;;6184953;23;20336;-90
2021/05/12 07:15:07;;;;;;;7.25;5.00;;;9.30;99.90;;;;;;6183998;23;20096;-91
2021/05/12 07:17:34;;;;;;;11.20;4.90;;;9.30;99.90;;;;;;6183675;23;20128;-90
2021/05/12 07:20:05;;;;;;;8.23;4.90;;;9.30;99.90;;;;;;6187083;23;20663;-89
2021/05/12 07:22:32;;;;;;;7.38;4.07;;;9.40;99.90;;;;;;6189246;23;20396;-90
2021/05/12 07:25:00;;;;;;;7.72;4.82;;;9.40;99.90;;;;;;6184962;23;20021;-89
2021/05/12 07:27:28;;;;;;;7.90;5.00;;;9.40;99.90;;;;;;6191076;23;20089;-90
2021/05/12 07:29:57;;;;;;;10.52;5.18;;;9.40;99.90;;;;;;6174037;23;20021;-91
2021/05/12 07:32:26;;;;;;;8.68;4.32;;;9.40;99.90;;;;;;6195886;23;20278;-90
2021/05/12 07:34:53;;;;;;;8.90;4.55;;;9.50;99.90;;;;;;6194208;23;20025;-92
2021/05/12 07:37:21;;;;;;;7.20;3.80;;;9.50;99.90;;;;;;6188720;23;20021;-91
2021/05/12 07:39:49;;;;;;;9.38;4.22;;;9.50;99.90;;;;;;6208929;23;20028;-91
2021/05/12 07:42:17;;;;;;;5.90;3.60;;;9.70;99.90;;;;;;6161306;23;20017;-89
2021/05/12 07:44:46;;;;;;;6.18;3.38;;;9.70;99.90;;;;;;6185886;23;20087;-89
2021/05/12 07:47:14;;;;;;;7.82;3.50;;;9.80;99.90;;;;;;6193927;23;20372;-92
2021/05/12 07:49:42;;;;;;;13.90;4.82;;;9.90;99.90;;;;;;6190225;23;20459;-90
2021/05/12 07:52:14;;;;;;;5.85;3.75;;;10.00;99.90;;;;;;6162770;23;20025;-92
2021/05/12 07:54:47;;;;;;;5.68;3.08;;;10.10;99.90;;;;;;6186788;23;20029;-92
2021/05/12 07:57:15;;;;;;;5.30;2.97;;;10.30;99.90;;;;;;6192777;23;20047;-93
2021/05/12 08:00:19;;;;;;;9.73;3.03;;;10.60;99.90;;;;;;6175137;23;20021;-92
2021/05/12 08:02:46;;;;;;;5.70;2.67;;;10.90;99.90;;;;;;6190187;23;20025;-91
2021/05/12 08:05:13;;;;;;;7.47;2.45;;;11.10;99.90;;;;;;6189734;23;20026;-93
2021/05/12 08:07:53;;;;;;;;;;;;;;;;;;;;;
2021/05/12 08:11:02;;;;;;;5.72;2.22;;;11.70;99.90;;;;;;6194639;23;20036;-92
2021/05/12 08:14:55;;;;;;;6.95;2.95;;;11.90;99.90;;;;;;6194781;23;20029;-90
2021/05/12 08:17:58;;;;;;;;;;;;;;;;;;;;;
2021/05/12 08:20:48;;;;;;;4.55;2.22;;;12.00;99.90;;;;;;6171508;23;20021;-91
2021/05/12 08:23:15;;;;;;;3.85;1.92;;;12.00;99.90;;;;;;6186975;23;20032;-89
2021/05/12 08:25:44;;;;;;;3.13;2.05;;;12.00;99.90;;;;;;6187417;23;20021;-89
2021/05/12 08:28:13;;;;;;;5.53;2.53;;;12.10;99.90;;;;;;6189441;23;20040;-92
2021/05/12 08:30:49;;;;;;;4.90;2.60;;;11.90;99.90;;;;;;6187461;23;20032;-91
2021/05/12 08:33:17;;;;;;;5.75;2.30;;;11.90;99.90;;;;;;6187559;23;20025;-92
2021/05/12 08:35:47;;;;;;;6.35;2.30;;;11.80;99.90;;;;;;6187789;23;20040;-90
2021/05/12 08:38:17;;;;;;;4.72;2.20;;;11.80;99.90;;;;;;6189158;23;20020;-93
2021/05/12 08:40:46;;;;;;;4.82;2.10;;;12.00;99.90;;;;;;6189077;23;20296;-91
2021/05/12 08:43:16;;;;;;;5.35;2.15;;;12.20;99.90;;;;;;6186825;23;20016;-91
2021/05/12 08:45:44;;;;;;;6.32;2.00;;;12.30;99.90;;;;;;6187913;23;20021;-93
2021/05/12 08:48:18;;;;;;;5.82;2.15;;;12.50;99.90;;;;;;6187669;23;20494;-92
2021/05/12 08:51:13;;;;;;;6.88;1.90;;;12.50;99.90;;;;;;6191174;23;20031;-93
2021/05/12 08:53:46;;;;;;;7.10;2.33;;;12.60;99.90;;;;;;6194315;23;20017;-91
2021/05/12 08:56:15;;;;;;;8.13;2.15;;;12.90;99.90;;;;;;6193433;23;20021;-91
2021/05/12 08:58:42;;;;;;;5.72;1.90;;;12.90;99.90;;;;;;6191345;23;20083;-90
2021/05/12 09:01:12;;;;;;;5.93;2.30;;;13.00;99.90;;;;;;6189745;23;20320;-91
2021/05/12 09:03:49;;;;;;;10.25;2.35;;;13.00;99.90;;;;;;6185827;23;20017;-92
2021/05/12 09:06:20;;;;;;;8.65;2.50;;;12.90;99.90;;;;;;6188327;23;20421;-93
2021/05/12 09:08:52;;;;;;;9.73;2.55;;;12.90;99.90;;;;;;6192022;23;20039;-91
2021/05/12 09:11:23;;;;;;;5.50;2.20;;;12.80;99.90;;;;;;6187196;23;20025;-93
2021/05/12 09:13:52;;;;;;;9.15;2.50;;;12.90;99.90;;;;;;6163488;23;20091;-92
2021/05/12 09:16:49;;;;;;;6.03;1.88;;;13.00;99.90;;;;;;6188565;23;20068;-92
2021/05/12 09:19:32;;;;;;;3.22;2.00;;;13.10;99.90;;;;;;6191675;23;20021;-92
2021/05/12 09:22:06;;;;;;;2.90;1.80;;;13.30;99.90;;;;;;6192228;23;20446;-91
2021/05/12 09:24:41;;;;;;;3.95;2.00;;;13.40;99.90;;;;;;6193321;23;20021;-91
2021/05/12 09:27:25;;;;;;;6.38;1.90;;;13.50;99.90;;;;;;6191168;23;20092;-91
2021/05/12 09:30:30;;;;;;;4.85;1.85;;;13.60;99.90;;;;;;6194709;23;20029;-92
2021/05/12 09:33:30;;;;;;;6.32;1.90;;;13.60;99.90;;;;;;6099442;23;20026;-88
2021/05/12 09:35:58;;;;;;;8.27;1.90;;;13.70;99.90;;;;;;6095604;23;20027;-88
2021/05/12 09:38:38;;;;;;;7.05;2.13;;;13.70;99.90;;;;;;6095428;23;20065;-92
2021/05/12 09:41:12;;;;;;;4.07;1.90;;;13.60;99.90;;;;;;6097319;23;20118;-91
2021/05/12 09:43:46;;;;;;;6.28;2.47;;;13.60;99.90;;;;;;6098138;23;20473;-91
2021/05/12 09:46:18;;;;;;;7.63;2.42;;;13.50;99.90;;;;;;6101871;23;20085;-91
2021/05/12 09:49:00;;;;;;;4.60;2.03;;;13.40;99.90;;;;;;6076233;23;20029;-92
2021/05/12 09:51:29;;;;;;;4.22;2.08;;;13.50;99.90;;;;;;6156043;23;20029;-92
2021/05/12 09:54:03;;;;;;;9.55;2.58;;;13.70;99.90;;;;;;6190802;23;20084;-91
2021/05/12 09:56:49;;;;;;;7.53;2.70;;;13.70;99.90;;;;;;6186876;23;20068;-90
2021/05/12 09:59:24;;;;;;;7.95;3.08;;;13.80;99.90;;;;;;6189200;23;20032;-90
2021/05/12 10:01:59;;;;;;;5.93;2.13;;;13.70;99.90;;;;;;6191233;23;20055;-92
2021/05/12 10:04:38;;;;;;;4.75;2.03;;;13.60;99.90;;;;;;6193044;23;20420;-91
2021/05/12 10:07:17;;;;;;;5.68;1.90;;;13.50;99.90;;;;;;6187133;23;20394;-91
2021/05/12 10:09:47;;;;;;;10.50;2.08;;;13.40;99.90;;;;;;6194120;23;20124;-90
2021/05/12 10:12:21;;;;;;;5.78;2.00;;;13.60;99.90;;;;;;6187479;23;20491;-92
2021/05/12 10:14:51;;;;;;;5.85;2.17;;;13.60;99.90;;;;;;6189973;23;20025;-91
2021/05/12 10:17:25;;;;;;;3.88;1.80;;;13.60;99.90;;;;;;6188542;23;20023;-90
2021/05/12 10:19:55;;;;;;;9.10;2.08;;;13.80;99.90;;;;;;6187300;23;20021;-91
2021/05/12 10:22:23;;;;;;;4.88;1.80;;;13.80;99.90;;;;;;6186796;23;20025;-90
2021/05/12 10:24:53;;;;;;;5.80;2.25;;;14.00;99.90;;;;;;6185747;23;20073;-91
2021/05/12 10:27:29;;;;;;;11.65;2.75;;;14.10;99.90;;;;;;6186139;23;20021;-90
2021/05/12 10:29:58;;;;;;;5.57;2.03;;;14.10;99.90;;;;;;6193279;23;20084;-90
2021/05/12 10:32:29;;;;;;;4.88;1.70;;;14.10;99.90;;;;;;6186595;23;20392;-91
2021/05/12 10:35:07;;;;;;;7.30;2.88;;;14.20;99.90;;;;;;6185323;23;20032;-92
2021/05/12 10:37:46;;;;;;;4.63;2.10;;;14.00;99.90;;;;;;6185315;23;20427;-90
2021/05/12 10:40:25;;;;;;;7.22;2.15;;;13.80;99.90;;;;;;6186498;23;20072;-92
2021/05/12 10:45:39;;;;;;;4.65;1.80;;;13.60;99.90;;;;;;6199311;23;20085;-93
2021/05/12 10:48:07;;;;;;;6.00;1.80;;;13.70;99.90;;;;;;6202482;23;20106;-92
2021/05/12 10:50:45;;;;;;;5.68;2.13;;;13.80;99.90;;;;;;6206218;23;20033;-91
2021/05/12 10:53:31;;;;;;;9.20;2.17;;;13.90;99.90;;;;;;6204548;23;20025;-91
2021/05/12 10:56:01;;;;;;;5.05;1.85;;;14.00;99.90;;;;;;6192862;23;20039;-92
2021/05/12 10:58:31;;;;;;;6.80;2.00;;;14.10;99.90;;;;;;6196588;23;20091;-94
2021/05/12 11:01:00;;;;;;;6.53;2.28;;;14.20;99.90;;;;;;6196044;23;20108;-92
2021/05/12 11:03:50;;;;;;;6.25;2.08;;;14.40;99.90;;;;;;6196374;23;20021;-91
2021/05/12 11:06:55;;;;;;;3.80;1.48;;;14.60;99.90;;;;;;6195310;23;20021;-92
2021/05/12 11:10:00;;;;;;;2.55;1.50;;;14.60;99.90;;;;;;6178730;23;20345;-94
2021/05/12 11:13:17;;;;;;;7.45;2.10;;;14.60;99.90;;;;;;6189716;23;20020;-93
2021/05/12 11:15:59;;;;;;;3.22;2.00;;;14.60;99.90;;;;;;6194426;23;20044;-91
2021/05/12 11:18:44;;;;;;;11.80;2.30;;;14.90;99.90;;;;;;6191815;23;20029;-91
2021/05/12 11:21:19;;;;;;;9.88;3.35;;;15.10;99.90;;;;;;6191950;23;20017;-91
2021/05/12 11:24:10;;;;;;;3.75;1.70;;;15.20;99.90;;;;;;6189175;23;20144;-91
2021/05/12 11:26:51;;;;;;;6.32;1.95;;;15.10;99.90;;;;;;6186233;23;20350;-93
2021/05/12 11:32:06;;;;;;;9.30;1.92;;;14.30;99.90;;;;;;6186509;23;20076;-90
2021/05/12 11:34:37;;;;;;;7.22;2.30;;;14.10;99.90;;;;;;6185466;23;20020;-90
2021/05/12 11:37:10;;;;;;;5.20;2.00;;;14.00;99.90;;;;;;6186084;23;20633;-93
2021/05/12 11:39:54;;;;;;;5.90;1.80;;;13.90;99.90;;;;;;6188441;23;20405;-92
2021/05/12 11:42:45;;;;;;;3.05;1.70;;;13.80;99.90;;;;;;6186708;23;20080;-92
2021/05/12 11:45:21;;;;;;;3.63;1.70;;;13.70;99.90;;;;;;6185848;23;20017;-92
2021/05/12 11:47:58;;;;;;;11.07;2.33;;;13.90;99.90;;;;;;6185352;23;20301;-92
2021/05/12 11:53:36;;;;;;;2.47;1.40;;;14.10;99.90;;;;;;6172063;23;20021;-93
2021/05/12 11:56:06;;;;;;;3.42;1.42;;;14.20;99.90;;;;;;6185541;23;20447;-91
2021/05/12 11:58:34;;;;;;;7.95;2.03;;;14.30;99.90;;;;;;6185955;23;20072;-94
2021/05/12 12:01:10;;;;;;;9.02;1.77;;;14.20;99.90;;;;;;6186144;23;20021;-93
2021/05/12 12:04:29;;;;;;;6.80;1.80;;;14.10;99.90;;;;;;6189075;23;20421;-92
2021/05/12 12:07:08;;;;;;;7.60;1.92;;;14.20;99.90;;;;;;6185376;23;20333;-92
2021/05/12 12:09:38;;;;;;;6.22;1.55;;;14.40;99.90;;;;;;6185407;23;20091;-92
2021/05/12 12:12:15;;;;;;;9.75;2.08;;;14.50;99.90;;;;;;6185582;23;20045;-91
2021/05/12 12:14:47;;;;;;;6.95;1.60;;;14.70;99.90;;;;;;6185444;23;20390;-92
2021/05/12 12:17:17;;;;;;;4.15;1.40;;;14.90;99.90;;;;;;6184283;23;20025;-93
2021/05/12 12:19:44;;;;;;;4.93;1.50;;;15.10;99.90;;;;;;6159434;23;20028;-92
2021/05/12 12:22:13;;;;;;;5.22;1.90;;;15.20;95.90;;;;;;6184307;23;20313;-93
2021/05/12 12:25:11;;;;;;;5.32;1.42;;;15.30;98.50;;;;;;6187370;23;20503;-91
2021/05/12 12:27:41;;;;;;;5.13;1.85;;;15.20;96.70;;;;;;6183580;23;20017;-94
2021/05/12 12:30:10;;;;;;;5.70;2.20;;;15.20;96.70;;;;;;6207213;23;20031;-89
2021/05/12 12:32:38;;;;;;;4.80;1.80;;;15.10;99.90;;;;;;6187236;23;20052;-92
2021/05/12 12:35:37;;;;;;;6.40;1.83;;;15.00;99.90;;;;;;6176122;23;20025;-93
2021/05/12 12:38:36;;;;;;;;;;;;;;;;;;;;;
2021/05/12 12:41:28;;;;;;;5.60;2.08;;;14.50;99.90;;;;;;6095482;23;20105;-92
2021/05/12 12:43:55;;;;;;;8.60;1.67;;;14.30;99.90;;;;;;6069035;23;20079;-90
2021/05/12 12:46:28;;;;;;;6.28;1.80;;;14.20;99.90;;;;;;6072040;23;20078;-91
2021/05/12 12:49:18;;;;;;;10.10;1.83;;;14.10;99.90;;;;;;6093912;23;20101;-90
2021/05/12 12:52:16;;;;;;;6.53;2.00;;;14.00;99.90;;;;;;6094580;23;20089;-92
2021/05/12 12:54:56;;;;;;;4.00;2.00;;;13.80;99.90;;;;;;6145528;23;20029;-91
2021/05/12 12:57:47;;;;;;;5.40;1.83;;;13.90;99.90;;;;;;6186752;23;20116;-90
2021/05/12 13:00:24;;;;;;;7.03;2.47;;;13.80;99.90;;;;;;6187476;23;20031;-91
2021/05/12 13:03:04;;;;;;;6.25;1.83;;;13.90;99.90;;;;;;6186927;23;20025;-91
2021/05/12 13:05:59;;;;;;;6.93;2.05;;;13.90;99.90;;;;;;6187779;23;20018;-91
2021/05/12 13:08:33;;;;;;;5.68;1.98;;;13.80;99.90;;;;;;6188258;23;20100;-93
2021/05/12 13:11:05;;;;;;;5.80;1.85;;;13.60;99.90;;;;;;6185980;23;20083;-91
2021/05/12 13:13:50;;;;;;;6.45;2.05;;;13.40;99.90;;;;;;6186715;23;20025;-91
2021/05/12 13:16:35;;;;;;;6.57;2.15;;;13.40;99.90;;;;;;6185523;23;20476;-91
2021/05/12 13:19:11;;;;;;;5.18;2.03;;;13.20;99.90;;;;;;6186255;23;20032;-93
2021/05/12 13:21:53;;;;;;;9.85;2.40;;;13.10;99.90;;;;;;6187042;23;20021;-91
2021/05/12 13:24:35;;;;;;;4.18;2.00;;;13.00;99.90;;;;;;6209258;23;20020;-90
2021/05/12 13:27:08;;;;;;;14.45;3.08;;;13.10;99.90;;;;;;6209062;23;20374;-92
2021/05/12 13:30:18;;;;;;;7.30;2.38;;;13.10;99.90;;;;;;6167863;23;20278;-89
2021/05/12 13:32:45;;;;;;;8.23;2.17;;;13.20;99.90;;;;;;6188225;23;20056;-91
2021/05/12 13:35:12;;;;;;;4.75;2.40;;;13.30;99.90;;;;;;6187561;23;20025;-92
2021/05/12 13:37:40;;;;;;;7.50;2.30;;;13.40;99.90;;;;;;6186996;23;20031;-92